sensor_id;sensor_type;location;lat;lon;timestamp;P1;durP1;ratioP1;P2;durP2;ratioP2
12567;SDS011;6349;50.904;6.136;2023-12-28T00:01:30;1.60;;;1.50;;
12567;SDS011;6349;50.904;6.136;2023-12-28T00:03:31;1.60;;;1.33;;
12567;SDS011;6349;50.904;6.136;2023-12-28T00:05:32;2.33;;;1.43;;
12567;SDS011;6349;50.904;6.136;2023-12-28T00:07:32;3.13;;;1.60;;
12567;SDS011;6349;50.904;6.136;2023-12-28T00:09:33;1.67;;;1.57;;
12567;SDS011;6349;50.904;6.136;2023-12-28T00:11:34;1.40;;;1.30;;
12567;SDS011;6349;50.904;6.136;2023-12-28T00:13:34;2.43;;;1.77;;
12567;SDS011;6349;50.904;6.136;2023-12-28T00:15:35;1.43;;;1.30;;
12567;SDS011;6349;50.904;6.136;2023-12-28T00:17:35;1.90;;;1.70;;
12567;SDS011;6349;50.904;6.136;2023-12-28T00:19:36;1.77;;;1.40;;
12567;SDS011;6349;50.904;6.136;2023-12-28T00:21:36;1.93;;;1.60;;
12567;SDS011;6349;50.904;6.136;2023-12-28T00:23:37;2.20;;;1.77;;
12567;SDS011;6349;50.904;6.136;2023-12-28T00:25:38;1.77;;;1.63;;
12567;SDS011;6349;50.904;6.136;2023-12-28T00:27:38;1.73;;;1.47;;
12567;SDS011;6349;50.904;6.136;2023-12-28T00:29:39;1.60;;;1.50;;
12567;SDS011;6349;50.904;6.136;2023-12-28T00:31:41;2.70;;;1.50;;
12567;SDS011;6349;50.904;6.136;2023-12-28T00:33:41;2.50;;;1.60;;
12567;SDS011;6349;50.904;6.136;2023-12-28T00:35:42;2.27;;;1.50;;
12567;SDS011;6349;50.904;6.136;2023-12-28T00:37:42;2.03;;;1.40;;
12567;SDS011;6349;50.904;6.136;2023-12-28T00:39:43;2.13;;;1.50;;
12567;SDS011;6349;50.904;6.136;2023-12-28T00:41:44;1.63;;;1.37;;
12567;SDS011;6349;50.904;6.136;2023-12-28T00:43:45;2.00;;;1.47;;
12567;SDS011;6349;50.904;6.136;2023-12-28T00:45:45;2.17;;;1.50;;
12567;SDS011;6349;50.904;6.136;2023-12-28T00:47:46;1.97;;;1.60;;
12567;SDS011;6349;50.904;6.136;2023-12-28T00:49:46;1.80;;;1.63;;
12567;SDS011;6349;50.904;6.136;2023-12-28T00:51:47;1.83;;;1.40;;
12567;SDS011;6349;50.904;6.136;2023-12-28T00:53:47;1.80;;;1.70;;
12567;SDS011;6349;50.904;6.136;2023-12-28T00:55:48;2.27;;;1.43;;
12567;SDS011;6349;50.904;6.136;2023-12-28T00:57:49;2.23;;;1.50;;
12567;SDS011;6349;50.904;6.136;2023-12-28T00:59:49;3.90;;;1.60;;
12567;SDS011;6349;50.904;6.136;2023-12-28T01:01:50;2.23;;;1.43;;
12567;SDS011;6349;50.904;6.136;2023-12-28T01:03:50;3.07;;;1.40;;
12567;SDS011;6349;50.904;6.136;2023-12-28T01:05:51;1.67;;;1.57;;
12567;SDS011;6349;50.904;6.136;2023-12-28T01:07:52;2.43;;;1.57;;
12567;SDS011;6349;50.904;6.136;2023-12-28T01:09:53;2.00;;;1.67;;
12567;SDS011;6349;50.904;6.136;2023-12-28T01:11:54;2.17;;;1.70;;
12567;SDS011;6349;50.904;6.136;2023-12-28T01:13:54;1.73;;;1.50;;
12567;SDS011;6349;50.904;6.136;2023-12-28T01:15:55;3.00;;;1.60;;
12567;SDS011;6349;50.904;6.136;2023-12-28T01:17:56;2.10;;;1.50;;
12567;SDS011;6349;50.904;6.136;2023-12-28T01:19:56;2.90;;;1.80;;
12567;SDS011;6349;50.904;6.136;2023-12-28T01:21:57;1.53;;;1.43;;
12567;SDS011;6349;50.904;6.136;2023-12-28T01:23:57;1.63;;;1.50;;
12567;SDS011;6349;50.904;6.136;2023-12-28T01:26:01;1.83;;;1.60;;
12567;SDS011;6349;50.904;6.136;2023-12-28T01:28:01;2.97;;;1.87;;
12567;SDS011;6349;50.904;6.136;2023-12-28T01:30:02;2.07;;;1.70;;
12567;SDS011;6349;50.904;6.136;2023-12-28T01:32:03;2.87;;;1.90;;
12567;SDS011;6349;50.904;6.136;2023-12-28T01:34:04;2.90;;;1.90;;
12567;SDS011;6349;50.904;6.136;2023-12-28T01:36:16;2.00;;;1.80;;
12567;SDS011;6349;50.904;6.136;2023-12-28T01:38:17;2.00;;;1.80;;
12567;SDS011;6349;50.904;6.136;2023-12-28T01:40:18;1.70;;;1.60;;
12567;SDS011;6349;50.904;6.136;2023-12-28T01:42:18;2.83;;;1.90;;
12567;SDS011;6349;50.904;6.136;2023-12-28T01:44:19;2.00;;;1.80;;
12567;SDS011;6349;50.904;6.136;2023-12-28T01:46:20;2.27;;;1.90;;
12567;SDS011;6349;50.904;6.136;2023-12-28T01:48:21;2.10;;;1.70;;
12567;SDS011;6349;50.904;6.136;2023-12-28T01:50:22;2.33;;;1.73;;
12567;SDS011;6349;50.904;6.136;2023-12-28T01:52:24;3.20;;;1.77;;
12567;SDS011;6349;50.904;6.136;2023-12-28T01:54:25;3.03;;;1.77;;
12567;SDS011;6349;50.904;6.136;2023-12-28T01:56:26;2.73;;;1.80;;
12567;SDS011;6349;50.904;6.136;2023-12-28T01:58:27;2.87;;;1.73;;
12567;SDS011;6349;50.904;6.136;2023-12-28T02:00:30;2.10;;;1.90;;
12567;SDS011;6349;50.904;6.136;2023-12-28T02:02:31;3.17;;;2.03;;
12567;SDS011;6349;50.904;6.136;2023-12-28T02:04:33;2.20;;;2.00;;
12567;SDS011;6349;50.904;6.136;2023-12-28T02:06:34;2.00;;;1.80;;
12567;SDS011;6349;50.904;6.136;2023-12-28T02:08:35;2.67;;;2.10;;
12567;SDS011;6349;50.904;6.136;2023-12-28T02:10:36;3.17;;;1.80;;
12567;SDS011;6349;50.904;6.136;2023-12-28T02:12:36;2.20;;;1.80;;
12567;SDS011;6349;50.904;6.136;2023-12-28T02:14:37;1.93;;;1.80;;
12567;SDS011;6349;50.904;6.136;2023-12-28T02:16:39;2.50;;;2.17;;
12567;SDS011;6349;50.904;6.136;2023-12-28T02:18:50;2.77;;;2.00;;
12567;SDS011;6349;50.904;6.136;2023-12-28T02:20:54;2.27;;;1.80;;
12567;SDS011;6349;50.904;6.136;2023-12-28T02:22:57;3.30;;;2.20;;
12567;SDS011;6349;50.904;6.136;2023-12-28T02:24:59;2.27;;;1.80;;
12567;SDS011;6349;50.904;6.136;2023-12-28T02:27:00;2.03;;;1.80;;
12567;SDS011;6349;50.904;6.136;2023-12-28T02:29:00;2.37;;;1.53;;
12567;SDS011;6349;50.904;6.136;2023-12-28T02:31:01;3.50;;;1.70;;
12567;SDS011;6349;50.904;6.136;2023-12-28T02:33:15;2.10;;;1.90;;
12567;SDS011;6349;50.904;6.136;2023-12-28T02:37:34;2.33;;;1.67;;
12567;SDS011;6349;50.904;6.136;2023-12-28T02:39:35;2.27;;;1.70;;
12567;SDS011;6349;50.904;6.136;2023-12-28T02:41:37;2.37;;;1.73;;
12567;SDS011;6349;50.904;6.136;2023-12-28T02:43:38;2.23;;;1.90;;
12567;SDS011;6349;50.904;6.136;2023-12-28T02:45:39;3.07;;;2.00;;
12567;SDS011;6349;50.904;6.136;2023-12-28T02:47:39;2.50;;;1.90;;
12567;SDS011;6349;50.904;6.136;2023-12-28T02:49:40;3.27;;;2.10;;
12567;SDS011;6349;50.904;6.136;2023-12-28T02:51:41;2.27;;;1.77;;
12567;SDS011;6349;50.904;6.136;2023-12-28T02:53:42;1.60;;;1.50;;
12567;SDS011;6349;50.904;6.136;2023-12-28T02:55:43;2.77;;;1.90;;
12567;SDS011;6349;50.904;6.136;2023-12-28T02:57:44;2.43;;;1.87;;
12567;SDS011;6349;50.904;6.136;2023-12-28T02:59:45;1.87;;;1.60;;
12567;SDS011;6349;50.904;6.136;2023-12-28T03:01:45;4.47;;;2.10;;
12567;SDS011;6349;50.904;6.136;2023-12-28T03:03:46;2.70;;;1.97;;
12567;SDS011;6349;50.904;6.136;2023-12-28T03:05:46;2.53;;;1.90;;
12567;SDS011;6349;50.904;6.136;2023-12-28T03:07:47;3.80;;;1.80;;
12567;SDS011;6349;50.904;6.136;2023-12-28T03:09:47;1.77;;;1.67;;
12567;SDS011;6349;50.904;6.136;2023-12-28T03:11:48;3.27;;;1.90;;
12567;SDS011;6349;50.904;6.136;2023-12-28T03:13:48;2.60;;;1.80;;
12567;SDS011;6349;50.904;6.136;2023-12-28T03:15:49;3.73;;;1.87;;
12567;SDS011;6349;50.904;6.136;2023-12-28T03:17:49;1.93;;;1.70;;
12567;SDS011;6349;50.904;6.136;2023-12-28T03:19:50;3.90;;;1.80;;
12567;SDS011;6349;50.904;6.136;2023-12-28T03:21:51;2.80;;;1.83;;
12567;SDS011;6349;50.904;6.136;2023-12-28T03:23:51;3.23;;;1.90;;
12567;SDS011;6349;50.904;6.136;2023-12-28T03:25:52;1.70;;;1.60;;
12567;SDS011;6349;50.904;6.136;2023-12-28T03:27:53;3.27;;;1.87;;
12567;SDS011;6349;50.904;6.136;2023-12-28T03:29:55;1.67;;;1.57;;
12567;SDS011;6349;50.904;6.136;2023-12-28T03:31:55;3.80;;;1.70;;
12567;SDS011;6349;50.904;6.136;2023-12-28T03:33:56;3.43;;;1.53;;
12567;SDS011;6349;50.904;6.136;2023-12-28T03:35:57;2.27;;;1.70;;
12567;SDS011;6349;50.904;6.136;2023-12-28T03:37:58;2.40;;;1.80;;
12567;SDS011;6349;50.904;6.136;2023-12-28T03:39:58;3.03;;;1.73;;
12567;SDS011;6349;50.904;6.136;2023-12-28T03:41:59;2.00;;;1.70;;
12567;SDS011;6349;50.904;6.136;2023-12-28T03:43:59;2.70;;;1.70;;
12567;SDS011;6349;50.904;6.136;2023-12-28T03:46:00;3.83;;;1.80;;
12567;SDS011;6349;50.904;6.136;2023-12-28T03:48:01;2.73;;;1.93;;
12567;SDS011;6349;50.904;6.136;2023-12-28T03:50:01;2.43;;;1.63;;
12567;SDS011;6349;50.904;6.136;2023-12-28T03:52:02;3.83;;;1.70;;
12567;SDS011;6349;50.904;6.136;2023-12-28T03:54:02;1.90;;;1.60;;
12567;SDS011;6349;50.904;6.136;2023-12-28T03:56:03;3.47;;;1.90;;
12567;SDS011;6349;50.904;6.136;2023-12-28T03:58:04;3.77;;;1.80;;
12567;SDS011;6349;50.904;6.136;2023-12-28T04:00:04;3.00;;;1.90;;
12567;SDS011;6349;50.904;6.136;2023-12-28T04:02:05;3.27;;;1.73;;
12567;SDS011;6349;50.904;6.136;2023-12-28T04:04:06;3.00;;;1.80;;
12567;SDS011;6349;50.904;6.136;2023-12-28T04:06:07;2.87;;;1.77;;
12567;SDS011;6349;50.904;6.136;2023-12-28T04:08:07;1.77;;;1.57;;
12567;SDS011;6349;50.904;6.136;2023-12-28T04:10:08;2.43;;;1.50;;
12567;SDS011;6349;50.904;6.136;2023-12-28T04:12:09;2.97;;;1.70;;
12567;SDS011;6349;50.904;6.136;2023-12-28T04:14:09;4.00;;;1.60;;
12567;SDS011;6349;50.904;6.136;2023-12-28T04:16:13;2.93;;;1.50;;
12567;SDS011;6349;50.904;6.136;2023-12-28T04:18:14;2.93;;;1.80;;
12567;SDS011;6349;50.904;6.136;2023-12-28T04:20:15;2.67;;;1.77;;
12567;SDS011;6349;50.904;6.136;2023-12-28T04:22:15;2.80;;;1.67;;
12567;SDS011;6349;50.904;6.136;2023-12-28T04:24:16;2.57;;;1.70;;
12567;SDS011;6349;50.904;6.136;2023-12-28T04:26:19;3.57;;;2.10;;
12567;SDS011;6349;50.904;6.136;2023-12-28T04:28:20;2.00;;;1.63;;
12567;SDS011;6349;50.904;6.136;2023-12-28T04:30:21;2.00;;;1.60;;
12567;SDS011;6349;50.904;6.136;2023-12-28T04:32:21;2.80;;;1.80;;
12567;SDS011;6349;50.904;6.136;2023-12-28T04:34:24;3.97;;;1.70;;
12567;SDS011;6349;50.904;6.136;2023-12-28T04:36:24;3.40;;;1.87;;
12567;SDS011;6349;50.904;6.136;2023-12-28T04:38:25;2.57;;;1.63;;
12567;SDS011;6349;50.904;6.136;2023-12-28T04:40:25;3.00;;;1.90;;
12567;SDS011;6349;50.904;6.136;2023-12-28T04:42:26;2.67;;;1.80;;
12567;SDS011;6349;50.904;6.136;2023-12-28T04:44:26;1.80;;;1.60;;
12567;SDS011;6349;50.904;6.136;2023-12-28T04:46:27;2.13;;;1.57;;
12567;SDS011;6349;50.904;6.136;2023-12-28T04:48:27;2.70;;;1.80;;
12567;SDS011;6349;50.904;6.136;2023-12-28T04:50:28;1.97;;;1.70;;
12567;SDS011;6349;50.904;6.136;2023-12-28T04:52:30;3.20;;;1.77;;
12567;SDS011;6349;50.904;6.136;2023-12-28T04:54:30;3.90;;;1.80;;
12567;SDS011;6349;50.904;6.136;2023-12-28T04:56:32;2.40;;;1.57;;
12567;SDS011;6349;50.904;6.136;2023-12-28T04:58:33;2.80;;;1.63;;
12567;SDS011;6349;50.904;6.136;2023-12-28T05:00:33;2.93;;;1.80;;
12567;SDS011;6349;50.904;6.136;2023-12-28T05:02:34;3.13;;;1.53;;
12567;SDS011;6349;50.904;6.136;2023-12-28T05:04:38;2.47;;;1.63;;
12567;SDS011;6349;50.904;6.136;2023-12-28T05:06:38;4.43;;;1.70;;
12567;SDS011;6349;50.904;6.136;2023-12-28T05:08:39;4.60;;;1.87;;
12567;SDS011;6349;50.904;6.136;2023-12-28T05:10:40;2.00;;;1.47;;
12567;SDS011;6349;50.904;6.136;2023-12-28T05:12:40;3.27;;;1.70;;
12567;SDS011;6349;50.904;6.136;2023-12-28T05:14:41;3.90;;;1.40;;
12567;SDS011;6349;50.904;6.136;2023-12-28T05:16:41;1.90;;;1.47;;
12567;SDS011;6349;50.904;6.136;2023-12-28T05:18:42;4.17;;;1.77;;
12567;SDS011;6349;50.904;6.136;2023-12-28T05:20:43;2.67;;;1.53;;
12567;SDS011;6349;50.904;6.136;2023-12-28T05:22:43;2.57;;;1.50;;
12567;SDS011;6349;50.904;6.136;2023-12-28T05:24:44;4.00;;;1.63;;
12567;SDS011;6349;50.904;6.136;2023-12-28T05:26:44;1.73;;;1.53;;
12567;SDS011;6349;50.904;6.136;2023-12-28T05:28:45;1.77;;;1.27;;
12567;SDS011;6349;50.904;6.136;2023-12-28T05:30:46;2.63;;;1.23;;
12567;SDS011;6349;50.904;6.136;2023-12-28T05:32:46;2.90;;;1.60;;
12567;SDS011;6349;50.904;6.136;2023-12-28T05:34:47;2.17;;;1.40;;
12567;SDS011;6349;50.904;6.136;2023-12-28T05:36:49;3.77;;;1.93;;
12567;SDS011;6349;50.904;6.136;2023-12-28T05:38:50;3.50;;;2.00;;
12567;SDS011;6349;50.904;6.136;2023-12-28T05:40:50;2.10;;;1.40;;
12567;SDS011;6349;50.904;6.136;2023-12-28T05:42:51;3.80;;;1.60;;
12567;SDS011;6349;50.904;6.136;2023-12-28T05:44:52;3.30;;;1.67;;
12567;SDS011;6349;50.904;6.136;2023-12-28T05:46:52;3.23;;;1.60;;
12567;SDS011;6349;50.904;6.136;2023-12-28T05:48:53;1.87;;;1.40;;
12567;SDS011;6349;50.904;6.136;2023-12-28T05:50:53;3.17;;;1.40;;
12567;SDS011;6349;50.904;6.136;2023-12-28T05:52:54;2.90;;;1.47;;
12567;SDS011;6349;50.904;6.136;2023-12-28T05:54:55;2.63;;;1.50;;
12567;SDS011;6349;50.904;6.136;2023-12-28T05:56:56;3.43;;;1.50;;
12567;SDS011;6349;50.904;6.136;2023-12-28T05:58:57;2.37;;;1.47;;
12567;SDS011;6349;50.904;6.136;2023-12-28T06:00:57;5.13;;;1.80;;
12567;SDS011;6349;50.904;6.136;2023-12-28T06:02:58;3.17;;;1.50;;
12567;SDS011;6349;50.904;6.136;2023-12-28T06:05:01;3.03;;;1.40;;
12567;SDS011;6349;50.904;6.136;2023-12-28T06:07:04;2.73;;;1.50;;
12567;SDS011;6349;50.904;6.136;2023-12-28T06:09:05;3.90;;;1.43;;
12567;SDS011;6349;50.904;6.136;2023-12-28T06:11:05;3.10;;;1.70;;
12567;SDS011;6349;50.904;6.136;2023-12-28T06:13:06;3.40;;;1.60;;
12567;SDS011;6349;50.904;6.136;2023-12-28T06:15:07;2.23;;;1.30;;
12567;SDS011;6349;50.904;6.136;2023-12-28T06:17:08;2.77;;;1.30;;
12567;SDS011;6349;50.904;6.136;2023-12-28T06:19:08;3.27;;;1.40;;
12567;SDS011;6349;50.904;6.136;2023-12-28T06:21:10;2.23;;;1.57;;
12567;SDS011;6349;50.904;6.136;2023-12-28T06:23:10;2.77;;;1.80;;
12567;SDS011;6349;50.904;6.136;2023-12-28T06:25:11;2.57;;;1.47;;
12567;SDS011;6349;50.904;6.136;2023-12-28T06:27:12;2.33;;;1.40;;
12567;SDS011;6349;50.904;6.136;2023-12-28T06:29:12;4.40;;;1.40;;
12567;SDS011;6349;50.904;6.136;2023-12-28T06:31:13;2.67;;;1.43;;
12567;SDS011;6349;50.904;6.136;2023-12-28T06:33:14;4.60;;;1.40;;
12567;SDS011;6349;50.904;6.136;2023-12-28T06:35:16;3.80;;;1.53;;
12567;SDS011;6349;50.904;6.136;2023-12-28T06:37:16;4.20;;;1.57;;
12567;SDS011;6349;50.904;6.136;2023-12-28T06:39:17;3.77;;;1.57;;
12567;SDS011;6349;50.904;6.136;2023-12-28T06:41:18;3.30;;;1.60;;
12567;SDS011;6349;50.904;6.136;2023-12-28T06:43:19;4.07;;;1.53;;
12567;SDS011;6349;50.904;6.136;2023-12-28T06:45:19;4.70;;;1.40;;
12567;SDS011;6349;50.904;6.136;2023-12-28T06:47:22;3.57;;;1.50;;
12567;SDS011;6349;50.904;6.136;2023-12-28T06:49:23;3.90;;;1.70;;
12567;SDS011;6349;50.904;6.136;2023-12-28T06:51:24;2.37;;;1.30;;
12567;SDS011;6349;50.904;6.136;2023-12-28T06:53:25;3.20;;;1.43;;
12567;SDS011;6349;50.904;6.136;2023-12-28T06:55:26;3.57;;;1.67;;
12567;SDS011;6349;50.904;6.136;2023-12-28T06:57:26;4.20;;;1.43;;
12567;SDS011;6349;50.904;6.136;2023-12-28T06:59:27;3.10;;;1.40;;
12567;SDS011;6349;50.904;6.136;2023-12-28T07:01:28;3.90;;;1.60;;
12567;SDS011;6349;50.904;6.136;2023-12-28T07:03:29;3.13;;;1.53;;
12567;SDS011;6349;50.904;6.136;2023-12-28T07:05:32;2.20;;;1.40;;
12567;SDS011;6349;50.904;6.136;2023-12-28T07:07:32;3.23;;;1.70;;
12567;SDS011;6349;50.904;6.136;2023-12-28T07:09:33;3.90;;;1.53;;
12567;SDS011;6349;50.904;6.136;2023-12-28T07:11:34;4.00;;;1.60;;
12567;SDS011;6349;50.904;6.136;2023-12-28T07:13:34;4.53;;;1.40;;
12567;SDS011;6349;50.904;6.136;2023-12-28T07:15:35;1.77;;;1.30;;
12567;SDS011;6349;50.904;6.136;2023-12-28T07:17:35;4.20;;;1.63;;
12567;SDS011;6349;50.904;6.136;2023-12-28T07:19:36;4.73;;;1.57;;
12567;SDS011;6349;50.904;6.136;2023-12-28T07:21:36;4.37;;;1.60;;
12567;SDS011;6349;50.904;6.136;2023-12-28T07:23:37;4.70;;;1.83;;
12567;SDS011;6349;50.904;6.136;2023-12-28T07:25:38;2.70;;;1.50;;
12567;SDS011;6349;50.904;6.136;2023-12-28T07:27:39;4.20;;;1.80;;
12567;SDS011;6349;50.904;6.136;2023-12-28T07:29:39;4.27;;;1.63;;
12567;SDS011;6349;50.904;6.136;2023-12-28T07:31:40;5.10;;;1.93;;
12567;SDS011;6349;50.904;6.136;2023-12-28T07:33:40;4.93;;;2.27;;
12567;SDS011;6349;50.904;6.136;2023-12-28T07:35:41;3.30;;;1.43;;
12567;SDS011;6349;50.904;6.136;2023-12-28T07:37:41;5.63;;;1.70;;
12567;SDS011;6349;50.904;6.136;2023-12-28T07:39:42;3.63;;;1.50;;
12567;SDS011;6349;50.904;6.136;2023-12-28T07:41:43;4.67;;;1.50;;
12567;SDS011;6349;50.904;6.136;2023-12-28T07:43:43;7.57;;;2.00;;
12567;SDS011;6349;50.904;6.136;2023-12-28T07:45:44;5.33;;;1.60;;
12567;SDS011;6349;50.904;6.136;2023-12-28T07:47:44;5.57;;;1.60;;
12567;SDS011;6349;50.904;6.136;2023-12-28T07:49:45;4.00;;;1.67;;
12567;SDS011;6349;50.904;6.136;2023-12-28T07:51:45;3.00;;;1.40;;
12567;SDS011;6349;50.904;6.136;2023-12-28T07:53:46;4.23;;;1.43;;
12567;SDS011;6349;50.904;6.136;2023-12-28T07:55:46;3.73;;;1.90;;
12567;SDS011;6349;50.904;6.136;2023-12-28T07:57:47;4.63;;;1.90;;
12567;SDS011;6349;50.904;6.136;2023-12-28T07:59:48;4.37;;;1.83;;
12567;SDS011;6349;50.904;6.136;2023-12-28T08:01:48;3.77;;;1.70;;
12567;SDS011;6349;50.904;6.136;2023-12-28T08:03:49;3.30;;;1.60;;
12567;SDS011;6349;50.904;6.136;2023-12-28T08:05:49;3.47;;;1.43;;
12567;SDS011;6349;50.904;6.136;2023-12-28T08:07:50;5.53;;;1.63;;
12567;SDS011;6349;50.904;6.136;2023-12-28T08:09:50;3.77;;;1.50;;
12567;SDS011;6349;50.904;6.136;2023-12-28T08:11:51;3.90;;;1.80;;
12567;SDS011;6349;50.904;6.136;2023-12-28T08:13:51;3.23;;;1.40;;
12567;SDS011;6349;50.904;6.136;2023-12-28T08:15:52;4.37;;;1.47;;
12567;SDS011;6349;50.904;6.136;2023-12-28T08:17:52;6.37;;;1.50;;
12567;SDS011;6349;50.904;6.136;2023-12-28T08:19:53;4.17;;;1.50;;
12567;SDS011;6349;50.904;6.136;2023-12-28T08:21:53;4.27;;;1.50;;
12567;SDS011;6349;50.904;6.136;2023-12-28T08:23:54;4.13;;;1.63;;
12567;SDS011;6349;50.904;6.136;2023-12-28T08:25:55;3.90;;;1.53;;
12567;SDS011;6349;50.904;6.136;2023-12-28T08:27:55;6.17;;;1.70;;
12567;SDS011;6349;50.904;6.136;2023-12-28T08:29:56;3.93;;;1.43;;
12567;SDS011;6349;50.904;6.136;2023-12-28T08:31:56;4.37;;;1.50;;
12567;SDS011;6349;50.904;6.136;2023-12-28T08:33:57;3.73;;;1.50;;
12567;SDS011;6349;50.904;6.136;2023-12-28T08:35:57;4.10;;;1.57;;
12567;SDS011;6349;50.904;6.136;2023-12-28T08:37:58;3.73;;;1.70;;
12567;SDS011;6349;50.904;6.136;2023-12-28T08:39:58;4.20;;;1.63;;
12567;SDS011;6349;50.904;6.136;2023-12-28T08:41:59;5.00;;;1.47;;
12567;SDS011;6349;50.904;6.136;2023-12-28T08:43:59;4.80;;;1.40;;
12567;SDS011;6349;50.904;6.136;2023-12-28T08:46:00;4.10;;;1.33;;
12567;SDS011;6349;50.904;6.136;2023-12-28T08:48:01;5.37;;;1.90;;
12567;SDS011;6349;50.904;6.136;2023-12-28T08:50:02;3.10;;;1.70;;
12567;SDS011;6349;50.904;6.136;2023-12-28T08:52:02;7.70;;;1.80;;
12567;SDS011;6349;50.904;6.136;2023-12-28T08:54:03;4.23;;;2.00;;
12567;SDS011;6349;50.904;6.136;2023-12-28T08:56:16;5.37;;;1.70;;
12567;SDS011;6349;50.904;6.136;2023-12-28T08:58:18;4.30;;;1.80;;
12567;SDS011;6349;50.904;6.136;2023-12-28T09:00:18;4.33;;;1.67;;
12567;SDS011;6349;50.904;6.136;2023-12-28T09:02:19;4.20;;;1.23;;
12567;SDS011;6349;50.904;6.136;2023-12-28T09:04:19;5.27;;;1.70;;
12567;SDS011;6349;50.904;6.136;2023-12-28T09:06:20;3.73;;;1.70;;
12567;SDS011;6349;50.904;6.136;2023-12-28T09:08:21;5.47;;;1.70;;
12567;SDS011;6349;50.904;6.136;2023-12-28T09:10:21;6.97;;;1.63;;
12567;SDS011;6349;50.904;6.136;2023-12-28T09:12:22;5.53;;;1.93;;
12567;SDS011;6349;50.904;6.136;2023-12-28T09:14:23;4.73;;;1.90;;
12567;SDS011;6349;50.904;6.136;2023-12-28T09:16:23;4.73;;;2.00;;
12567;SDS011;6349;50.904;6.136;2023-12-28T09:18:24;4.67;;;1.73;;
12567;SDS011;6349;50.904;6.136;2023-12-28T09:20:24;3.77;;;1.77;;
12567;SDS011;6349;50.904;6.136;2023-12-28T09:22:25;3.90;;;1.67;;
12567;SDS011;6349;50.904;6.136;2023-12-28T09:24:25;2.80;;;1.20;;
12567;SDS011;6349;50.904;6.136;2023-12-28T09:26:26;6.33;;;1.97;;
12567;SDS011;6349;50.904;6.136;2023-12-28T09:28:27;3.90;;;1.80;;
12567;SDS011;6349;50.904;6.136;2023-12-28T09:30:27;3.47;;;1.50;;
12567;SDS011;6349;50.904;6.136;2023-12-28T09:32:28;4.23;;;1.30;;
12567;SDS011;6349;50.904;6.136;2023-12-28T09:34:28;5.80;;;1.77;;
12567;SDS011;6349;50.904;6.136;2023-12-28T09:36:29;5.77;;;1.80;;
12567;SDS011;6349;50.904;6.136;2023-12-28T09:38:29;5.60;;;1.63;;
12567;SDS011;6349;50.904;6.136;2023-12-28T09:40:30;3.87;;;1.67;;
12567;SDS011;6349;50.904;6.136;2023-12-28T09:42:37;6.77;;;2.10;;
12567;SDS011;6349;50.904;6.136;2023-12-28T09:44:44;6.20;;;1.77;;
12567;SDS011;6349;50.904;6.136;2023-12-28T09:46:44;3.23;;;1.50;;
12567;SDS011;6349;50.904;6.136;2023-12-28T09:48:46;4.60;;;1.93;;
12567;SDS011;6349;50.904;6.136;2023-12-28T09:50:50;5.63;;;1.77;;
12567;SDS011;6349;50.904;6.136;2023-12-28T09:52:54;5.13;;;1.57;;
12567;SDS011;6349;50.904;6.136;2023-12-28T09:54:54;4.53;;;1.63;;
12567;SDS011;6349;50.904;6.136;2023-12-28T09:56:55;7.40;;;1.93;;
12567;SDS011;6349;50.904;6.136;2023-12-28T09:58:56;5.60;;;1.80;;
12567;SDS011;6349;50.904;6.136;2023-12-28T10:00:57;5.77;;;1.90;;
12567;SDS011;6349;50.904;6.136;2023-12-28T10:03:00;4.97;;;1.70;;
12567;SDS011;6349;50.904;6.136;2023-12-28T10:05:04;4.20;;;1.70;;
12567;SDS011;6349;50.904;6.136;2023-12-28T10:07:06;5.07;;;1.70;;
12567;SDS011;6349;50.904;6.136;2023-12-28T10:09:07;3.43;;;1.70;;
12567;SDS011;6349;50.904;6.136;2023-12-28T10:11:08;5.70;;;1.50;;
12567;SDS011;6349;50.904;6.136;2023-12-28T10:13:09;5.67;;;1.70;;
12567;SDS011;6349;50.904;6.136;2023-12-28T10:15:10;6.47;;;1.87;;
12567;SDS011;6349;50.904;6.136;2023-12-28T10:17:11;3.77;;;2.10;;
12567;SDS011;6349;50.904;6.136;2023-12-28T10:19:11;5.10;;;1.60;;
12567;SDS011;6349;50.904;6.136;2023-12-28T10:21:12;5.83;;;1.77;;
12567;SDS011;6349;50.904;6.136;2023-12-28T10:23:13;5.20;;;1.73;;
12567;SDS011;6349;50.904;6.136;2023-12-28T10:25:14;4.90;;;1.70;;
12567;SDS011;6349;50.904;6.136;2023-12-28T10:27:14;4.83;;;1.80;;
12567;SDS011;6349;50.904;6.136;2023-12-28T10:29:15;3.43;;;1.50;;
12567;SDS011;6349;50.904;6.136;2023-12-28T10:31:15;5.73;;;1.90;;
12567;SDS011;6349;50.904;6.136;2023-12-28T10:33:16;2.97;;;1.33;;
12567;SDS011;6349;50.904;6.136;2023-12-28T10:35:19;8.03;;;1.67;;
12567;SDS011;6349;50.904;6.136;2023-12-28T10:37:20;6.00;;;1.97;;
12567;SDS011;6349;50.904;6.136;2023-12-28T10:39:21;3.20;;;1.50;;
12567;SDS011;6349;50.904;6.136;2023-12-28T10:41:24;5.20;;;1.63;;
12567;SDS011;6349;50.904;6.136;2023-12-28T10:43:30;5.00;;;1.50;;
12567;SDS011;6349;50.904;6.136;2023-12-28T10:45:35;5.53;;;1.77;;
12567;SDS011;6349;50.904;6.136;2023-12-28T10:47:42;7.87;;;1.93;;
12567;SDS011;6349;50.904;6.136;2023-12-28T10:49:46;4.13;;;1.60;;
12567;SDS011;6349;50.904;6.136;2023-12-28T10:51:49;8.13;;;1.63;;
12567;SDS011;6349;50.904;6.136;2023-12-28T10:56:33;5.20;;;1.60;;
12567;SDS011;6349;50.904;6.136;2023-12-28T11:01:04;7.73;;;1.70;;
12567;SDS011;6349;50.904;6.136;2023-12-28T11:03:10;5.87;;;1.80;;
12567;SDS011;6349;50.904;6.136;2023-12-28T11:05:15;4.57;;;1.50;;
12567;SDS011;6349;50.904;6.136;2023-12-28T11:07:17;5.80;;;1.60;;
12567;SDS011;6349;50.904;6.136;2023-12-28T11:09:19;7.77;;;2.00;;
12567;SDS011;6349;50.904;6.136;2023-12-28T11:11:21;7.17;;;2.03;;
12567;SDS011;6349;50.904;6.136;2023-12-28T11:13:22;4.37;;;1.50;;
12567;SDS011;6349;50.904;6.136;2023-12-28T11:15:23;4.17;;;1.70;;
12567;SDS011;6349;50.904;6.136;2023-12-28T11:17:25;4.60;;;1.67;;
12567;SDS011;6349;50.904;6.136;2023-12-28T11:19:26;5.90;;;1.80;;
12567;SDS011;6349;50.904;6.136;2023-12-28T11:21:28;4.33;;;1.80;;
12567;SDS011;6349;50.904;6.136;2023-12-28T11:23:30;5.77;;;1.67;;
12567;SDS011;6349;50.904;6.136;2023-12-28T11:25:31;5.03;;;1.70;;
12567;SDS011;6349;50.904;6.136;2023-12-28T11:27:33;5.60;;;1.90;;
12567;SDS011;6349;50.904;6.136;2023-12-28T11:29:35;5.33;;;1.70;;
12567;SDS011;6349;50.904;6.136;2023-12-28T11:31:35;4.93;;;1.63;;
12567;SDS011;6349;50.904;6.136;2023-12-28T11:33:46;4.97;;;1.53;;
12567;SDS011;6349;50.904;6.136;2023-12-28T11:35:47;6.67;;;1.70;;
12567;SDS011;6349;50.904;6.136;2023-12-28T11:37:48;6.57;;;1.90;;
12567;SDS011;6349;50.904;6.136;2023-12-28T11:39:53;4.50;;;1.60;;
12567;SDS011;6349;50.904;6.136;2023-12-28T11:42:02;3.03;;;1.67;;
12567;SDS011;6349;50.904;6.136;2023-12-28T11:44:05;5.53;;;1.60;;
12567;SDS011;6349;50.904;6.136;2023-12-28T11:46:06;5.83;;;1.90;;
12567;SDS011;6349;50.904;6.136;2023-12-28T11:48:08;5.87;;;1.90;;
12567;SDS011;6349;50.904;6.136;2023-12-28T11:50:08;5.57;;;1.83;;
12567;SDS011;6349;50.904;6.136;2023-12-28T11:52:09;5.40;;;1.80;;
12567;SDS011;6349;50.904;6.136;2023-12-28T11:54:13;4.07;;;1.67;;
12567;SDS011;6349;50.904;6.136;2023-12-28T11:56:15;4.57;;;1.67;;
12567;SDS011;6349;50.904;6.136;2023-12-28T11:58:17;7.47;;;2.00;;
12567;SDS011;6349;50.904;6.136;2023-12-28T12:00:18;7.77;;;1.60;;
12567;SDS011;6349;50.904;6.136;2023-12-28T12:02:20;4.53;;;1.97;;
12567;SDS011;6349;50.904;6.136;2023-12-28T12:04:21;5.70;;;1.77;;
12567;SDS011;6349;50.904;6.136;2023-12-28T12:06:22;4.97;;;1.80;;
12567;SDS011;6349;50.904;6.136;2023-12-28T12:08:24;4.20;;;1.70;;
12567;SDS011;6349;50.904;6.136;2023-12-28T12:10:24;4.77;;;1.70;;
12567;SDS011;6349;50.904;6.136;2023-12-28T12:12:26;5.43;;;1.40;;
12567;SDS011;6349;50.904;6.136;2023-12-28T12:14:27;3.40;;;1.40;;
12567;SDS011;6349;50.904;6.136;2023-12-28T12:16:28;5.40;;;1.70;;
12567;SDS011;6349;50.904;6.136;2023-12-28T12:18:29;5.40;;;1.50;;
12567;SDS011;6349;50.904;6.136;2023-12-28T12:20:29;5.53;;;1.70;;
12567;SDS011;6349;50.904;6.136;2023-12-28T12:22:31;6.53;;;1.77;;
12567;SDS011;6349;50.904;6.136;2023-12-28T12:24:32;5.83;;;1.80;;
12567;SDS011;6349;50.904;6.136;2023-12-28T12:26:33;5.33;;;1.50;;
12567;SDS011;6349;50.904;6.136;2023-12-28T12:28:36;4.13;;;1.60;;